Time;durP1;ratioP1;P1;durP2;ratioP2;P2;SDS_P1;SDS_P2;PMS_P1;PMS_P2;Temp;Humidity;BMP_temperature;BMP_pressure;BME280_temperature;BME280_humidity;BME280_pressure;Samples;Min_cycle;Max_cycle;Signal;HPM_P1;HPM_P2
2021/09/08 00:00:10;;;;;;;;;15.50;13.00;;;;;26.80;39.08;101206.88;5096209;27;50980;-56
2021/09/08 00:02:35;;;;;;;;;11.25;11.00;;;;;26.79;39.03;101202.41;5089697;27;51214;-55
2021/09/08 00:05:00;;;;;;;;;14.00;13.50;;;;;26.78;38.73;101209.03;5093315;27;51299;-56
2021/09/08 00:07:26;;;;;;;;;14.75;12.50;;;;;26.77;38.89;101204.59;5088744;27;51170;-56
2021/09/08 00:09:51;;;;;;;;;15.75;14.25;;;;;26.75;38.11;101193.72;5089057;27;51167;-56
2021/09/08 00:12:16;;;;;;;;;12.25;12.25;;;;;26.75;38.68;101192.91;5088752;27;50986;-55
2021/09/08 00:14:42;;;;;;;;;15.50;14.50;;;;;26.74;38.35;101199.56;5085952;27;52101;-55
2021/09/08 00:17:07;;;;;;;;;14.50;14.50;;;;;26.73;38.16;101195.09;5097013;27;51200;-57
2021/09/08 00:19:32;;;;;;;;;16.00;13.00;;;;;26.71;38.18;101186.19;5088488;27;51187;-56
2021/09/08 00:21:57;;;;;;;;;15.50;14.25;;;;;26.70;38.40;101187.28;5090655;27;50983;-55
2021/09/08 00:24:23;;;;;;;;;19.00;13.75;;;;;26.70;38.47;101187.28;5075579;27;51059;-56
2021/09/08 00:26:48;;;;;;;;;12.50;12.50;;;;;26.68;38.12;101186.69;5086881;27;51102;-55
2021/09/08 00:29:14;;;;;;;;;13.00;12.00;;;;;26.66;38.06;101177.75;5093654;27;51212;-56
2021/09/08 00:31:39;;;;;;;;;11.00;10.75;;;;;26.65;38.43;101171.34;5095438;27;51155;-56
2021/09/08 00:34:04;;;;;;;;;17.25;13.50;;;;;26.65;38.67;101173.28;5092446;27;51981;-56
2021/09/08 00:36:30;;;;;;;;;16.50;14.50;;;;;26.64;38.46;101158.56;5079743;27;51211;-56
2021/09/08 00:38:55;;;;;;;;;13.00;13.00;;;;;26.63;38.19;101158.81;5092704;27;51405;-56
2021/09/08 00:41:21;;;;;;;;;11.75;11.75;;;;;26.62;38.42;101155.22;5088754;27;51323;-55
2021/09/08 00:43:47;;;;;;;;;14.00;12.25;;;;;26.61;38.37;101153.53;5084455;27;51801;-55
2021/09/08 00:46:14;;;;;;;;;12.50;10.00;;;;;26.61;38.12;101152.69;5092806;27;51131;-55
2021/09/08 00:48:39;;;;;;;;;14.75;13.00;;;;;26.59;37.98;101154.88;5087996;27;51326;-56
2021/09/08 00:51:04;;;;;;;;;13.00;12.50;;;;;26.59;37.81;101149.34;5088541;27;51321;-51
2021/09/08 00:53:33;;;;;;;;;13.50;12.50;;;;;26.58;38.24;101144.88;5094152;27;51289;-55
2021/09/08 00:56:01;;;;;;;;;14.75;14.50;;;;;26.58;37.84;101147.66;5087715;27;51107;-56
2021/09/08 00:58:26;;;;;;;;;13.50;12.25;;;;;26.57;37.96;101143.16;5088281;27;51055;-55
2021/09/08 01:00:52;;;;;;;;;15.25;11.25;;;;;26.58;38.29;101144.88;5087880;27;50977;-55
2021/09/08 01:03:17;;;;;;;;;14.00;11.75;;;;;26.55;37.98;101140.66;5077545;27;51592;-56
2021/09/08 01:05:46;;;;;;;;;12.00;10.50;;;;;26.56;37.90;101142.31;5088988;27;51235;-56
2021/09/08 01:08:12;;;;;;;;;13.50;12.00;;;;;26.55;37.77;101146.22;5093785;27;51240;-56
2021/09/08 01:10:37;;;;;;;;;13.50;10.75;;;;;26.54;38.37;101140.91;5077714;27;51262;-56
2021/09/08 01:13:03;;;;;;;;;9.75;9.75;;;;;26.54;38.16;101143.69;5086524;27;51132;-56
2021/09/08 01:15:28;;;;;;;;;11.75;11.75;;;;;26.52;37.86;101137.56;5085193;27;51115;-56
2021/09/08 01:17:54;;;;;;;;;12.75;12.75;;;;;26.51;38.07;101142.28;5088680;27;51112;-55
2021/09/08 01:20:19;;;;;;;;;10.00;10.00;;;;;26.51;38.20;101133.94;5085892;27;50939;-56
2021/09/08 01:22:50;;;;;;;;;12.25;11.75;;;;;26.50;37.75;101129.47;5082434;27;54093;-54
2021/09/08 01:25:24;;;;;;;;;15.00;12.25;;;;;26.49;38.22;101133.34;5087839;27;51065;-55
2021/09/08 01:27:52;;;;;;;;;17.50;11.25;;;;;26.48;37.96;101131.69;5087913;27;51151;-54
2021/09/08 01:30:23;;;;;;;;;13.50;12.00;;;;;26.46;38.13;101129.13;5090791;27;51139;-56
2021/09/08 01:32:49;;;;;;;;;12.00;10.75;;;;;26.46;38.37;101123.56;5091432;27;51107;-54
2021/09/08 01:35:18;;;;;;;;;11.25;11.25;;;;;26.45;37.92;101135.78;5084355;27;51553;-55
2021/09/08 01:37:46;;;;;;;;;12.25;12.00;;;;;26.44;38.21;101120.22;5089359;27;51225;-55
2021/09/08 01:40:12;;;;;;;;;14.00;12.25;;;;;26.44;37.98;101120.22;5074759;27;51061;-56
2021/09/08 01:42:37;;;;;;;;;13.75;12.25;;;;;26.43;38.38;101121.31;5082313;27;51982;-54
2021/09/08 01:45:03;;;;;;;;;12.00;10.75;;;;;26.43;38.39;101114.91;5080970;27;51058;-56
2021/09/08 01:47:28;;;;;;;;;14.25;13.00;;;;;26.42;38.18;101116.84;5075848;27;51113;-54
2021/09/08 01:49:54;;;;;;;;;11.25;11.00;;;;;26.43;37.82;101120.47;5076282;27;51239;-56
2021/09/08 01:52:19;;;;;;;;;12.50;11.75;;;;;26.41;38.28;101108.78;5075918;27;51610;-53
2021/09/08 01:54:45;;;;;;;;;11.25;10.25;;;;;26.41;38.49;101111.56;5077408;27;51346;-54
2021/09/08 01:57:10;;;;;;;;;12.75;11.25;;;;;26.40;38.27;101107.94;5085796;27;50992;-53
2021/09/08 01:59:35;;;;;;;;;13.25;12.00;;;;;26.38;38.09;101104.59;5091078;27;51398;-53
2021/09/08 02:02:01;;;;;;;;;12.50;11.50;;;;;26.38;37.83;101104.59;5094586;27;51220;-54
2021/09/08 02:04:26;;;;;;;;;14.00;12.50;;;;;26.37;38.00;101100.13;5094203;27;51164;-55
2021/09/08 02:06:52;;;;;;;;;12.75;12.75;;;;;26.38;38.31;101103.75;5087857;27;51009;-55
2021/09/08 02:09:18;;;;;;;;;11.75;11.75;;;;;26.37;37.84;101100.13;5096054;27;51168;-54
2021/09/08 02:11:44;;;;;;;;;12.00;12.00;;;;;26.36;38.18;101094.78;5095726;27;51903;-54
2021/09/08 02:14:09;;;;;;;;;14.25;13.25;;;;;26.36;38.17;101083.66;5095408;27;51063;-54
2021/09/08 02:16:35;;;;;;;;;12.50;10.25;;;;;26.34;38.14;101086.72;5095502;27;51217;-53
2021/09/08 02:19:00;;;;;;;;;10.25;9.50;;;;;26.34;38.17;101081.16;5087682;27;51069;-54
2021/09/08 02:21:26;;;;;;;;;11.75;10.25;;;;;26.33;38.18;101071.13;5095137;27;51856;-54
2021/09/08 02:23:51;;;;;;;;;11.75;11.25;;;;;26.33;38.22;101064.75;5095186;27;51075;-56
2021/09/08 02:26:16;;;;;;;;;12.25;11.75;;;;;26.33;38.33;101073.09;5091193;27;50941;-55
2021/09/08 02:28:42;;;;;;;;;14.75;12.00;;;;;26.32;37.98;101072.25;5090184;27;51226;-54
2021/09/08 02:31:08;;;;;;;;;11.25;9.50;;;;;26.32;38.17;101069.47;5094338;27;51590;-55
2021/09/08 02:33:34;;;;;;;;;11.25;11.25;;;;;26.31;38.46;101065.00;5095090;27;51151;-55
2021/09/08 02:35:59;;;;;;;;;18.25;15.00;;;;;26.30;38.19;101060.56;5087491;27;51174;-56
2021/09/08 02:38:25;;;;;;;;;19.50;15.00;;;;;26.31;38.67;101064.16;5094754;27;51175;-55
2021/09/08 02:40:50;;;;;;;;;12.50;12.00;;;;;26.30;38.49;101048.59;5074807;27;51541;-55
2021/09/08 02:43:15;;;;;;;;;17.75;16.25;;;;;26.30;38.17;101048.59;5094045;27;51134;-56
2021/09/08 02:45:41;;;;;;;;;15.50;14.00;;;;;26.30;38.61;101048.59;5084723;27;51397;-56
2021/09/08 02:48:06;;;;;;;;;15.25;12.75;;;;;26.28;38.24;101043.31;5074692;28;51359;-55
2021/09/08 02:50:32;;;;;;;;;11.25;11.25;;;;;26.28;38.11;101046.09;5074685;28;51911;-54
2021/09/08 02:52:57;;;;;;;;;14.25;11.75;;;;;26.27;38.68;101055.53;5074965;28;51127;-54
2021/09/08 02:55:22;;;;;;;;;15.25;10.25;;;;;26.28;38.48;101042.47;5073724;28;51111;-55
2021/09/08 02:57:48;;;;;;;;;11.50;11.50;;;;;26.26;38.47;101037.19;5074277;28;51365;-54
2021/09/08 03:00:13;;;;;;;;;14.75;11.50;;;;;26.26;38.72;101039.09;5074342;28;51733;-55
2021/09/08 03:02:39;;;;;;;;;13.00;13.00;;;;;26.25;38.77;101035.47;5074506;28;51501;-53
2021/09/08 03:05:05;;;;;;;;;11.00;11.00;;;;;26.25;38.56;101035.47;5074409;28;51181;-54
2021/09/08 03:07:30;;;;;;;;;13.00;13.00;;;;;26.24;38.49;101028.25;5074896;28;50948;-54
2021/09/08 03:09:55;;;;;;;;;12.50;12.50;;;;;26.23;38.36;101023.78;5074300;28;52028;-54
2021/09/08 03:12:21;;;;;;;;;11.00;11.00;;;;;26.24;38.65;101025.47;5073927;28;51008;-55
2021/09/08 03:14:47;;;;;;;;;14.50;11.75;;;;;26.22;38.63;101022.13;5074541;28;51195;-55
2021/09/08 03:17:12;;;;;;;;;16.75;12.75;;;;;26.23;38.78;101018.25;5062932;28;51071;-54
2021/09/08 03:19:38;;;;;;;;;12.75;12.50;;;;;26.21;38.41;101014.03;5057722;28;51806;-55
2021/09/08 03:22:03;;;;;;;;;14.25;12.50;;;;;26.21;38.44;101017.66;5072744;28;51002;-54
2021/09/08 03:24:28;;;;;;;;;10.75;10.75;;;;;26.20;38.38;101007.66;5077264;28;51138;-54
2021/09/08 03:26:53;;;;;;;;;11.25;10.75;;;;;26.19;38.71;101014.31;5078240;28;51102;-55
2021/09/08 03:29:20;;;;;;;;;13.00;12.75;;;;;26.18;38.92;101016.25;5072590;28;52214;-53
2021/09/08 03:31:46;;;;;;;;;11.00;10.75;;;;;26.19;38.69;101008.75;5077451;28;51280;-55
2021/09/08 03:34:11;;;;;;;;;9.50;9.50;;;;;26.18;38.78;101012.63;5068747;28;51524;-55
2021/09/08 03:36:36;;;;;;;;;17.50;14.75;;;;;26.17;38.93;101009.00;5049416;28;51445;-54
2021/09/08 03:39:03;;;;;;;;;11.50;11.50;;;;;26.16;38.72;100996.22;5077209;27;51064;-55
2021/09/08 03:41:28;;;;;;;;;14.25;12.75;;;;;26.15;39.03;101005.63;5076925;28;51075;-55
2021/09/08 03:43:53;;;;;;;;;14.25;13.75;;;;;26.15;38.62;100993.69;5061155;28;51063;-54
2021/09/08 03:46:19;;;;;;;;;14.25;12.00;;;;;26.15;38.69;100993.69;5080968;27;51136;-55
2021/09/08 03:48:44;;;;;;;;;13.00;11.00;;;;;26.15;38.93;100988.13;5097504;27;51800;-56
2021/09/08 03:51:10;;;;;;;;;13.25;12.75;;;;;26.14;38.66;100986.47;5096256;27;51077;-52
2021/09/08 03:53:36;;;;;;;;;10.75;10.75;;;;;26.13;39.23;100979.22;5088478;27;51205;-56
2021/09/08 03:56:02;;;;;;;;;13.25;11.25;;;;;26.13;39.02;100968.13;5087707;27;51313;-55
2021/09/08 03:58:27;;;;;;;;;13.75;12.50;;;;;26.12;38.88;100969.22;5096962;27;51770;-55
2021/09/08 04:00:53;;;;;;;;;17.00;14.75;;;;;26.12;38.60;100967.28;5097428;27;51198;-54
2021/09/08 04:03:18;;;;;;;;;13.50;11.75;;;;;26.10;39.10;100963.94;5079997;27;51275;-55
2021/09/08 04:05:44;;;;;;;;;15.50;14.25;;;;;26.11;38.81;100964.78;5097463;27;51116;-55
2021/09/08 04:08:09;;;;;;;;;15.50;14.00;;;;;26.10;39.18;100971.44;5097348;27;51695;-56
2021/09/08 04:10:34;;;;;;;;;12.25;11.25;;;;;26.10;39.02;100968.66;5097514;27;51142;-56
2021/09/08 04:13:00;;;;;;;;;13.25;13.25;;;;;26.09;38.93;100962.25;5097347;27;51053;-55
2021/09/08 04:15:25;;;;;;;;;16.00;15.00;;;;;26.08;39.13;100968.91;5097376;27;51098;-54
2021/09/08 04:17:50;;;;;;;;;14.75;13.75;;;;;26.08;38.67;100960.59;5093069;27;52288;-56
2021/09/08 04:20:16;;;;;;;;;16.75;15.00;;;;;26.06;39.28;100962.78;5089716;27;51094;-56
2021/09/08 04:22:41;;;;;;;;;12.00;11.50;;;;;26.06;39.25;100954.44;5096745;27;51098;-55
2021/09/08 04:25:07;;;;;;;;;13.00;12.00;;;;;26.06;38.99;100959.16;5095645;27;51079;-55
2021/09/08 04:27:33;;;;;;;;;13.00;13.00;;;;;26.06;38.89;100956.41;5073011;28;51244;-56
2021/09/08 04:29:58;;;;;;;;;16.25;12.50;;;;;26.05;39.05;100954.69;5080805;27;51228;-55
2021/09/08 04:32:23;;;;;;;;;13.75;13.00;;;;;26.04;39.07;100948.28;5077380;27;51147;-56
2021/09/08 04:34:48;;;;;;;;;15.00;13.50;;;;;26.03;39.27;100945.78;5086201;27;51365;-57
2021/09/08 04:37:14;;;;;;;;;15.50;14.25;;;;;26.02;39.00;100941.31;5077171;27;51685;-55
2021/09/08 04:39:39;;;;;;;;;14.25;12.00;;;;;26.01;38.97;100957.16;5083066;27;51100;-53
2021/09/08 04:42:04;;;;;;;;;14.50;13.25;;;;;26.01;39.40;100951.59;5096916;27;51089;-54
2021/09/08 04:44:30;;;;;;;;;14.50;12.25;;;;;26.01;39.00;100950.75;5096650;27;50985;-53
2021/09/08 04:46:55;;;;;;;;;13.75;13.25;;;;;26.01;39.16;100947.97;5098897;27;51780;-54
2021/09/08 04:49:21;;;;;;;;;15.50;13.50;;;;;26.00;39.22;100949.06;5096781;27;51094;-55
2021/09/08 04:51:46;;;;;;;;;13.25;13.25;;;;;25.99;39.71;100951.00;5078254;27;51274;-54
2021/09/08 04:54:12;;;;;;;;;18.75;12.75;;;;;25.99;39.50;100952.94;5096866;27;50910;-54
2021/09/08 04:56:38;;;;;;;;;17.25;15.00;;;;;25.99;39.35;100955.72;5077734;27;52166;-54
2021/09/08 04:59:03;;;;;;;;;15.25;13.25;;;;;25.97;39.31;100944.88;5085172;27;51111;-55
2021/09/08 05:01:29;;;;;;;;;16.50;14.50;;;;;25.98;39.10;100954.06;5095137;27;51277;-55
2021/09/08 05:03:54;;;;;;;;;12.50;11.00;;;;;25.97;39.02;100953.22;5092681;27;51032;-55
2021/09/08 05:06:20;;;;;;;;;15.75;15.50;;;;;25.97;38.94;100949.59;5096638;27;51738;-55
2021/09/08 05:08:45;;;;;;;;;16.25;16.25;;;;;25.95;39.40;100944.31;5096648;27;51132;-54
2021/09/08 05:11:12;;;;;;;;;18.50;15.75;;;;;25.95;39.24;100943.44;5096470;27;51210;-54
2021/09/08 05:13:37;;;;;;;;;11.75;11.00;;;;;25.94;39.40;100952.88;5094585;27;51149;-53
2021/09/08 05:16:03;;;;;;;;;17.25;14.50;;;;;25.94;39.40;100955.66;5091793;27;51619;-55
2021/09/08 05:18:28;;;;;;;;;15.00;13.75;;;;;25.93;39.52;100940.09;5095290;27;50982;-54
2021/09/08 05:20:54;;;;;;;;;15.25;14.75;;;;;25.92;39.29;100944.81;5095705;27;51159;-53
2021/09/08 05:23:19;;;;;;;;;15.00;15.00;;;;;25.92;39.48;100944.81;5096352;27;51658;-54
2021/09/08 05:25:44;;;;;;;;;16.00;13.75;;;;;25.91;39.47;100940.34;5096068;27;51889;-55
2021/09/08 05:28:11;;;;;;;;;12.25;12.25;;;;;25.90;39.47;100947.84;5088542;27;51075;-54
2021/09/08 05:30:36;;;;;;;;;16.50;15.50;;;;;25.90;39.33;100942.28;5096050;27;51087;-54
2021/09/08 05:33:02;;;;;;;;;15.00;13.00;;;;;25.90;39.20;100947.84;5091228;27;51496;-55
2021/09/08 05:35:27;;;;;;;;;14.00;13.00;;;;;25.90;39.36;100945.06;5090777;27;51103;-55
2021/09/08 05:37:52;;;;;;;;;18.50;17.75;;;;;25.89;39.36;100946.16;5091444;27;51082;-53
2021/09/08 05:40:18;;;;;;;;;15.75;14.25;;;;;25.88;39.55;100946.41;5095888;27;51257;-54
2021/09/08 05:42:43;;;;;;;;;19.50;15.00;;;;;25.86;39.43;100949.47;5093171;27;51657;-55
2021/09/08 05:45:09;;;;;;;;;12.25;11.75;;;;;25.84;39.60;100946.06;5087013;27;51166;-52
2021/09/08 05:47:34;;;;;;;;;14.75;14.25;;;;;25.84;39.48;100939.69;5072657;27;51147;-54
2021/09/08 05:50:00;;;;;;;;;18.00;15.00;;;;;25.83;39.53;100954.66;5070921;28;51241;-54
2021/09/08 05:52:25;;;;;;;;;17.50;17.50;;;;;25.81;39.39;100940.22;5074228;27;51036;-56
2021/09/08 05:54:50;;;;;;;;;13.50;12.50;;;;;25.79;39.74;100950.72;5063086;28;51812;-54
2021/09/08 05:57:16;;;;;;;;;12.75;12.50;;;;;25.77;39.86;100945.44;5073082;27;51131;-56
2021/09/08 05:59:41;;;;;;;;;14.50;14.50;;;;;25.76;39.50;100948.47;5074243;28;51151;-55
2021/09/08 06:02:06;;;;;;;;;13.25;13.00;;;;;25.74;39.58;100948.72;5070675;27;51145;-54
2021/09/08 06:04:32;;;;;;;;;18.50;15.50;;;;;25.73;39.85;100947.03;5077067;27;51790;-54
2021/09/08 06:06:58;;;;;;;;;13.00;12.00;;;;;25.72;39.78;100950.91;5075371;27;51112;-54
2021/09/08 06:09:24;;;;;;;;;16.25;14.25;;;;;25.73;39.76;100951.75;5079884;27;51080;-54
2021/09/08 06:11:49;;;;;;;;;16.00;13.75;;;;;25.73;40.07;100944.25;5079695;27;50982;-54
2021/09/08 06:14:15;;;;;;;;;14.50;12.25;;;;;25.73;39.82;100941.47;5073241;28;53211;-57
2021/09/08 06:16:40;;;;;;;;;15.50;15.00;;;;;25.72;40.01;100937.03;5072602;28;52239;-55
2021/09/08 06:19:06;;;;;;;;;20.00;16.75;;;;;25.71;40.10;100935.34;5073101;27;51826;-55
2021/09/08 06:21:32;;;;;;;;;20.00;16.25;;;;;25.71;40.11;100935.34;5072527;27;51102;-55
2021/09/08 06:23:57;;;;;;;;;16.75;15.00;;;;;25.70;40.40;100928.13;5070502;27;53343;-56
2021/09/08 06:26:23;;;;;;;;;11.75;11.50;;;;;25.71;40.37;100923.41;5078415;27;51194;-55
2021/09/08 06:28:51;;;;;;;;;14.25;14.00;;;;;25.71;40.70;100927.03;5077043;27;51319;-53
2021/09/08 06:31:17;;;;;;;;;14.25;13.50;;;;;25.71;40.62;100940.06;5075318;27;51330;-55
2021/09/08 06:33:43;;;;;;;;;16.00;14.50;;;;;25.71;40.17;100934.50;5077964;27;51112;-54
2021/09/08 06:36:08;;;;;;;;;13.00;13.00;;;;;25.71;40.72;100932.56;5072995;27;51216;-53
2021/09/08 06:38:33;;;;;;;;;15.25;15.00;;;;;25.71;40.53;100929.81;5070707;27;51182;-57
2021/09/08 06:41:00;;;;;;;;;16.75;16.75;;;;;25.71;40.72;100935.34;5071157;27;51331;-53
2021/09/08 06:43:26;;;;;;;;;15.50;13.25;;;;;25.72;40.37;100927.88;5073154;27;51058;-51
2021/09/08 06:45:51;;;;;;;;;17.00;15.00;;;;;25.72;40.54;100931.47;5080136;27;51144;-53
2021/09/08 06:48:17;;;;;;;;;17.25;17.25;;;;;25.73;40.70;100927.59;5086210;27;51449;-56
2021/09/08 06:50:42;;;;;;;;;14.00;14.00;;;;;25.73;40.52;100921.22;5086375;27;51048;-56
2021/09/08 06:53:08;;;;;;;;;18.75;17.50;;;;;25.74;40.50;100915.44;5080464;27;51347;-53
2021/09/08 06:55:33;;;;;;;;;16.75;15.75;;;;;25.74;40.61;100915.44;5091716;27;51221;-54
2021/09/08 06:57:58;;;;;;;;;15.00;14.25;;;;;25.74;40.31;100921.00;5092202;27;51393;-55
2021/09/08 07:00:24;;;;;;;;;20.75;18.75;;;;;25.73;40.75;100927.59;5097720;27;51348;-56
2021/09/08 07:02:49;;;;;;;;;16.25;15.75;;;;;25.74;40.94;100929.31;5083094;27;51092;-56
2021/09/08 07:05:17;;;;;;;;;17.25;16.00;;;;;25.74;40.52;100918.22;5090356;27;51112;-56
2021/09/08 07:07:42;;;;;;;;;19.75;18.75;;;;;25.74;40.61;100918.22;5092692;27;51073;-56
2021/09/08 07:10:08;;;;;;;;;18.00;14.75;;;;;25.74;40.53;100906.25;5088647;27;51062;-56
2021/09/08 07:12:33;;;;;;;;;19.50;16.50;;;;;25.74;40.57;100918.22;5085112;27;52862;-56
2021/09/08 07:14:58;;;;;;;;;15.75;15.00;;;;;25.72;40.60;100917.59;5094200;27;50954;-56
2021/09/08 07:17:24;;;;;;;;;16.00;15.75;;;;;25.73;40.61;100908.19;5097009;27;51377;-60
2021/09/08 07:19:49;;;;;;;;;16.75;15.75;;;;;25.74;40.79;100914.56;5097245;27;50984;-55
2021/09/08 07:22:14;;;;;;;;;15.75;14.75;;;;;25.74;40.63;100911.78;5095478;27;51826;-55
2021/09/08 07:24:41;;;;;;;;;19.25;17.25;;;;;25.73;40.66;100899.84;5096275;27;51121;-55
2021/09/08 07:27:07;;;;;;;;;20.00;15.00;;;;;25.75;40.76;100903.25;5098713;27;51241;-56
2021/09/08 07:29:32;;;;;;;;;17.25;15.25;;;;;25.75;40.72;100908.78;5101725;27;51102;-56
2021/09/08 07:31:58;;;;;;;;;16.00;15.00;;;;;25.74;40.97;100912.66;5084812;27;52315;-55
2021/09/08 07:34:23;;;;;;;;;17.00;15.75;;;;;25.75;40.79;100907.94;5074925;28;51101;-54
2021/09/08 07:36:48;;;;;;;;;15.25;15.25;;;;;25.76;40.98;100907.69;5092511;27;50939;-55
2021/09/08 07:39:14;;;;;;;;;18.50;16.00;;;;;25.76;40.59;100901.31;5077680;27;51183;-54
2021/09/08 07:41:40;;;;;;;;;18.75;16.50;;;;;25.76;40.73;100895.75;5096593;27;51822;-56
2021/09/08 07:44:05;;;;;;;;;19.75;17.75;;;;;25.77;41.05;100898.28;5094754;27;51148;-55
2021/09/08 07:46:31;;;;;;;;;20.00;15.25;;;;;25.77;40.64;100892.72;5085048;27;51394;-55
2021/09/08 07:48:56;;;;;;;;;19.00;17.50;;;;;25.78;40.85;100893.56;5076750;27;51477;-55
2021/09/08 07:51:21;;;;;;;;;21.50;16.50;;;;;25.78;40.88;100891.63;5082561;27;51707;-55
2021/09/08 07:53:47;;;;;;;;;18.75;15.75;;;;;25.79;40.95;100898.00;5089438;27;51080;-54
2021/09/08 07:56:12;;;;;;;;;14.00;13.75;;;;;25.78;40.93;100891.63;5087189;27;51511;-55
2021/09/08 07:58:38;;;;;;;;;19.25;17.75;;;;;25.78;40.96;100886.06;5089480;27;51084;-56
2021/09/08 08:01:03;;;;;;;;;14.50;14.00;;;;;25.78;41.17;100882.47;5077057;27;51825;-55
2021/09/08 08:03:29;;;;;;;;;17.75;16.50;;;;;25.78;40.95;100880.53;5077637;27;51160;-56
2021/09/08 08:05:54;;;;;;;;;17.25;16.50;;;;;25.78;41.08;100888.00;5089212;27;51040;-56
2021/09/08 08:08:20;;;;;;;;;21.00;18.00;;;;;25.80;41.27;100886.66;5078000;27;51185;-56
2021/09/08 08:10:45;;;;;;;;;17.25;16.50;;;;;25.81;41.29;100881.94;5076237;27;51291;-55
2021/09/08 08:13:11;;;;;;;;;20.75;17.50;;;;;25.81;41.14;100874.44;5091952;27;50941;-56
2021/09/08 08:15:36;;;;;;;;;22.50;20.00;;;;;25.83;41.29;100886.13;5076350;27;51356;-55
2021/09/08 08:18:02;;;;;;;;;19.75;17.50;;;;;25.84;41.07;100890.56;5082510;27;51341;-55
2021/09/08 08:20:27;;;;;;;;;16.25;13.00;;;;;25.85;40.84;100886.72;5094128;27;51683;-56
2021/09/08 08:22:53;;;;;;;;;15.25;14.50;;;;;25.86;40.91;100884.78;5096092;27;51081;-52
2021/09/08 08:25:21;;;;;;;;;17.75;15.50;;;;;25.87;40.91;100880.91;5096057;27;51079;-54
2021/09/08 08:27:47;;;;;;;;;18.00;17.25;;;;;25.88;41.40;100877.03;5080259;27;51329;-55
2021/09/08 08:30:15;;;;;;;;;22.25;17.25;;;;;25.89;41.01;100879.56;5085594;27;51166;-56
2021/09/08 08:32:41;;;;;;;;;18.50;17.75;;;;;25.89;40.89;100876.78;5081507;27;51433;-52
2021/09/08 08:35:07;;;;;;;;;17.75;16.25;;;;;25.91;41.24;100876.53;5080882;27;51160;-56
2021/09/08 08:37:33;;;;;;;;;15.00;15.00;;;;;25.93;41.05;100871.53;5087816;27;51441;-56
2021/09/08 08:39:58;;;;;;;;;15.25;15.25;;;;;25.94;41.20;100872.38;5095851;27;51963;-54
2021/09/08 08:42:27;;;;;;;;;15.75;13.75;;;;;25.95;41.23;100871.28;5086429;27;51104;-54
2021/09/08 08:44:53;;;;;;;;;17.75;15.00;;;;;25.94;41.31;100870.44;5076917;27;51246;-54
2021/09/08 08:47:20;;;;;;;;;16.00;15.25;;;;;25.95;41.65;100868.50;5076262;27;51227;-55
2021/09/08 08:49:47;;;;;;;;;16.75;15.50;;;;;25.96;41.70;100861.88;5075557;27;51056;-54
2021/09/08 08:52:13;;;;;;;;;15.00;13.25;;;;;25.96;41.17;100868.28;5083257;27;51136;-54
2021/09/08 08:54:38;;;;;;;;;16.00;14.25;;;;;25.98;41.51;100865.25;5080607;27;51176;-55
2021/09/08 08:57:08;;;;;;;;;13.25;13.25;;;;;25.99;41.50;100850.25;5083381;27;51076;-56
2021/09/08 08:59:39;;;;;;;;;14.00;13.25;;;;;26.01;41.45;100850.84;5080176;27;51677;-55
2021/09/08 09:02:21;;;;;;;;;12.50;11.00;;;;;26.01;41.86;100848.06;5082711;27;51176;-54
2021/09/08 09:04:47;;;;;;;;;17.00;13.25;;;;;26.03;41.51;100843.06;5090453;27;51144;-55
2021/09/08 09:07:23;;;;;;;;;16.25;14.75;;;;;26.04;41.46;100836.41;5095830;27;51068;-55
2021/09/08 09:09:55;;;;;;;;;11.50;11.50;;;;;26.06;41.49;100834.25;5093654;27;51106;-54
2021/09/08 09:12:25;;;;;;;;;13.75;12.00;;;;;26.07;41.63;100834.00;5093214;27;51070;-54
2021/09/08 09:14:50;;;;;;;;;13.50;12.25;;;;;26.08;41.54;100834.81;5086975;27;51302;-56
2021/09/08 09:17:16;;;;;;;;;13.25;12.25;;;;;26.09;41.90;100826.22;5075494;27;51264;-54
2021/09/08 09:19:46;;;;;;;;;12.50;12.50;;;;;26.10;41.59;100824.28;5086725;27;51072;-55
2021/09/08 09:22:12;;;;;;;;;16.00;14.50;;;;;26.11;41.92;100820.41;5094032;27;51604;-55
2021/09/08 09:24:40;;;;;;;;;13.00;13.00;;;;;26.12;41.79;100819.31;5073929;27;51137;-56
2021/09/08 09:27:11;;;;;;;;;11.25;10.75;;;;;26.13;41.59;100818.22;5087639;27;50984;-55
2021/09/08 09:29:42;;;;;;;;;14.00;14.00;;;;;26.14;41.75;100817.09;5091975;27;51066;-55
2021/09/08 09:32:08;;;;;;;;;12.50;11.00;;;;;26.14;41.94;100820.72;5095025;27;51144;-55
2021/09/08 09:34:35;;;;;;;;;13.00;12.00;;;;;26.16;41.72;100826.88;5093332;27;51113;-55
2021/09/08 09:37:01;;;;;;;;;13.75;12.50;;;;;26.17;42.22;100825.78;5093836;27;51369;-55
2021/09/08 09:39:32;;;;;;;;;12.00;11.25;;;;;26.17;42.07;100817.44;5094601;27;51725;-56
2021/09/08 09:42:05;;;;;;;;;15.50;13.75;;;;;26.18;42.04;100827.44;5089292;27;51173;-55
2021/09/08 09:44:34;;;;;;;;;12.50;12.50;;;;;26.19;42.15;100820.78;5074715;27;51184;-56
2021/09/08 09:47:00;;;;;;;;;14.00;12.50;;;;;26.21;42.10;100822.47;5083289;27;51273;-54
2021/09/08 09:49:26;;;;;;;;;15.50;13.25;;;;;26.23;42.29;100817.47;5087448;27;51920;-55
2021/09/08 09:51:55;;;;;;;;;14.25;14.25;;;;;26.24;42.42;100819.16;5094454;27;51298;-54
2021/09/08 09:54:22;;;;;;;;;13.50;11.50;;;;;26.23;42.05;100818.31;5091780;27;51187;-55
2021/09/08 09:56:48;;;;;;;;;15.00;13.75;;;;;26.25;41.88;100816.13;5095048;27;51549;-54
2021/09/08 09:59:14;;;;;;;;;15.75;11.75;;;;;26.27;42.18;100813.09;5086451;27;51572;-54
2021/09/08 10:01:40;;;;;;;;;12.25;11.25;;;;;26.25;42.03;100813.34;5083375;27;51216;-55
2021/09/08 10:04:05;;;;;;;;;11.50;11.00;;;;;26.28;42.10;100809.22;5094342;27;51190;-56
2021/09/08 10:06:31;;;;;;;;;15.00;14.00;;;;;26.28;42.49;100807.28;5090972;27;51324;-54
2021/09/08 10:08:58;;;;;;;;;13.25;12.00;;;;;26.29;42.02;100814.50;5080811;27;51698;-55
2021/09/08 10:11:26;;;;;;;;;12.75;11.25;;;;;26.30;42.50;100807.00;5075679;27;51343;-55
2021/09/08 10:13:59;;;;;;;;;15.25;12.25;;;;;26.31;42.23;100806.75;5074736;27;51175;-53
2021/09/08 10:16:26;;;;;;;;;10.50;10.50;;;;;26.32;42.39;100816.75;5065831;28;51085;-55
2021/09/08 10:18:52;;;;;;;;;11.00;11.00;;;;;26.32;42.38;100816.75;5075683;27;51780;-55
2021/09/08 10:21:21;;;;;;;;;12.00;9.50;;;;;26.34;42.42;100809.00;5090147;27;51178;-54
2021/09/08 10:23:59;;;;;;;;;16.75;14.50;;;;;26.36;42.72;100803.16;5092791;27;51213;-52
2021/09/08 10:26:30;;;;;;;;;11.00;11.00;;;;;26.38;42.54;100803.81;5084411;27;51180;-54
2021/09/08 10:29:05;;;;;;;;;13.50;12.25;;;;;26.39;42.90;100800.75;5086847;27;51801;-54
2021/09/08 10:31:32;;;;;;;;;14.75;12.75;;;;;26.40;42.45;100808.00;5082377;27;51538;-52
2021/09/08 10:33:59;;;;;;;;;16.00;12.50;;;;;26.41;42.44;100801.31;5081960;27;51120;-53
2021/09/08 10:36:25;;;;;;;;;14.00;12.25;;;;;26.42;42.86;100794.66;5081263;27;51130;-53
2021/09/08 10:39:05;;;;;;;;;12.50;11.50;;;;;26.44;42.60;100797.19;5077185;27;52008;-54
2021/09/08 10:41:42;;;;;;;;;13.50;12.00;;;;;26.45;42.95;100791.34;5084510;27;51155;-53
2021/09/08 10:44:08;;;;;;;;;13.75;12.00;;;;;26.46;42.73;100784.69;5077515;28;51139;-54
2021/09/08 10:46:52;;;;;;;;;14.00;12.50;;;;;26.47;42.84;100791.13;5077547;28;51251;-53
2021/09/08 10:49:39;;;;;;;;;12.25;12.25;;;;;26.48;43.00;100775.28;5077175;28;51617;-53
2021/09/08 10:52:06;;;;;;;;;12.50;12.25;;;;;26.49;42.66;100782.50;5092999;27;51355;-55
2021/09/08 10:54:31;;;;;;;;;14.75;12.75;;;;;26.50;42.97;100786.97;5098433;27;51242;-54
2021/09/08 10:56:58;;;;;;;;;10.25;10.25;;;;;26.50;42.53;100782.25;5098640;27;50985;-53
2021/09/08 10:59:23;;;;;;;;;16.00;12.25;;;;;26.51;42.87;100781.16;5097939;27;51206;-54
2021/09/08 11:01:52;;;;;;;;;11.75;11.50;;;;;26.52;42.48;100777.25;5098750;27;51115;-53
2021/09/08 11:04:18;;;;;;;;;14.50;13.50;;;;;26.53;42.62;100772.53;5098480;27;51123;-54